Terminal Aerodrome Forecast
Issued by NWS Louisville, KY

Home | Current Version | Previous Version | Text Only | Print | Product List | Glossary On
Versions: 1 2 3 4 5 6 7 8 9 10 11 12 13 14 15 16 17 18
000
FTUS43 KLMK 011700
TAFBWG
TAF
KBWG 011720Z 0118/0218 23008KT P6SM VCSH OVC150
     FM011900 23010KT P6SM VCTS BKN045CB
     FM012300 22007KT P6SM VCSH BKN050
     FM020700 22007KT P6SM VCTS BKN040CB
     FM021100 22006KT P6SM VCSH BKN060=

USA.gov is the U.S. government's official web portal to all federal, state and local government web resources and services.